Latest Weather Observations for Kununurra Airport

IDW60801

Issued at 9:32 pm WST Tuesday 12 December 2017 (issued every 30 minutes, with the page automatically refreshed every 10 minutes)

About weather observations | Map of weather stations | Latest weather observations for WA | Other Formats
Station Details ID: 002056 Name: KUNUNURRA AERO Lat: -15.78 Lon: 128.71 Height: 44.0 m
Data from the previous 72 hours. | See also: Recent months at Kununurra Airport
Date/Time
WST
Temp
°C
App
Temp
°C
Dew
Point
°C
Rel
Hum
%
Delta-T
°C
Wind Press
QNH
hPa
Press
MSL
hPa
Rain since
9am
mm
Dir  Spd
km/h
Gust
km/h
Spd
kts
Gust
kts
12/09:30pm 30.6 34.3 25.2 73 3.8 NNE 15 19 8 10 1007.1 1006.8 0.0
12/09:00pm 31.1 35.3 25.4 71 4.0 N 13 19 7 10 1006.9 1006.6 0.0
12/08:30pm 31.8 35.2 25.2 68 4.7 N 17 20 9 11 1006.8 1006.5 0.0
12/08:22pm 31.8 34.8 24.7 66 5.0 N 17 20 9 11 1006.6 1006.3 0.0
12/08:06pm 31.8 34.0 23.3 60 5.9 N 17 20 9 11 1006.6 1006.3 0.0
12/08:00pm 31.6 34.0 22.9 60 6.0 N 15 19 8 10 1006.5 1006.1 0.0
12/07:30pm 31.7 33.3 21.5 54 6.9 N 15 17 8 9 1006.3 1005.9 0.0
12/07:25pm 31.8 33.3 21.3 53 7.1 NNE 15 17 8 9 1006.2 1005.8 0.0
12/07:01pm 32.5 33.9 21.0 50 7.7 NNE 15 17 8 9 1006.0 1005.6 0.0
12/07:00pm 32.5 33.7 20.7 49 7.9 NNE 15 17 8 9 1006.0 1005.6 0.0
12/06:30pm 34.4 37.3 21.1 45 9.0 NNE 7 9 4 5 1005.7 1005.3 0.0
12/06:00pm 35.3 37.3 20.0 40 10.2 NNE 9 13 5 7 1005.4 1005.0 0.0
12/05:30pm 37.9 39.7 18.8 32 12.7 NNE 7 9 4 5 1005.0 1004.6 0.0
12/05:00pm 39.1 39.8 16.1 26 14.8 NE 7 9 4 5 1004.6 1004.2 0.0
12/04:30pm 39.9 41.1 17.3 26 14.8 ESE 7 9 4 5 1004.6 1004.2 0.0
12/04:00pm 39.9 40.1 16.8 26 15.0 SE 11 13 6 7 1004.4 1004.0 0.0
12/03:30pm 40.0 40.2 16.8 25 15.1 SE 11 17 6 9 1004.5 1004.1 0.0
12/03:00pm 40.4 40.9 16.6 25 15.5 SSE 9 15 5 8 1004.7 1004.3 0.0
12/02:30pm 40.2 40.3 16.4 25 15.4 S 11 15 6 8 1004.9 1004.5 0.0
12/02:00pm 40.5 41.4 16.6 24 15.5 ESE 7 13 4 7 1005.5 1005.1 0.0
12/01:30pm 39.6 40.1 16.5 25 14.9 N 9 17 5 9 1005.8 1005.4 0.0
12/01:00pm 39.2 40.3 17.9 28 14.0 NE 9 15 5 8 1006.3 1005.9 0.0
12/12:30pm 39.5 42.2 20.2 32 13.1 N 6 13 3 7 1006.7 1006.4 0.0
12/12:00pm 38.4 39.6 20.7 36 12.0 NNE 15 20 8 11 1007.1 1006.8 0.0
12/11:30am 37.5 40.3 21.6 39 10.9 N 9 15 5 8 1007.6 1007.3 0.0
12/11:00am 37.3 40.0 21.4 39 10.9 E 9 13 5 7 1008.2 1007.9 0.0
12/10:30am 37.1 39.3 21.2 39 10.8 S 11 15 6 8 1008.8 1008.5 0.0
12/10:00am 36.9 39.6 22.2 42 10.2 SSW 11 15 6 8 1009.2 1008.9 0.0
12/09:30am 35.2 38.3 22.2 47 8.9 N 9 17 5 9 1009.6 1009.3 0.0
12/09:00am 34.6 37.4 22.3 48 8.5 WNW 11 17 6 9 1009.9 1009.6 0.0
12/08:30am 34.2 37.2 22.6 50 8.0 NW 11 20 6 11 1010.2 1009.9 0.0
12/08:00am 32.9 35.9 22.7 55 7.0 NNW 11 20 6 11 1010.4 1010.1 0.0
12/07:30am 31.6 34.9 23.2 61 5.8 N 11 13 6 7 1010.5 1010.2 0.0
12/07:00am 31.1 34.3 22.4 60 5.9 NW 9 13 5 7 1010.4 1010.1 0.0
12/06:30am 29.7 33.6 23.6 69 4.2 NNW 9 11 5 6 1010.1 1009.8 0.0
12/06:00am 28.2 32.2 23.8 77 3.0 N 9 13 5 7 1010.0 1009.7 0.0
12/05:30am 26.7 30.3 23.8 84 2.0 N 11 13 6 7 1009.5 1009.2 0.0
12/05:00am 26.0 30.8 23.5 86 1.7 N 4 7 2 4 1009.2 1008.9 0.0
12/04:30am 25.9 30.8 23.6 87 1.6 W 4 7 2 4 1009.0 1008.7 0.0
12/04:00am 26.2 29.8 23.7 86 1.7 N 11 13 6 7 1008.5 1008.2 0.0
12/03:30am 26.4 29.7 23.9 86 1.7 N 13 15 7 8 1008.3 1008.0 0.0
12/03:00am 26.5 29.4 23.8 85 1.9 N 15 19 8 10 1008.2 1007.9 0.0
12/02:30am 26.5 30.3 24.0 86 1.7 N 11 13 6 7 1008.0 1007.7 0.0
12/02:00am 26.9 30.7 24.0 84 2.0 N 11 15 6 8 1007.9 1007.6 0.0
12/01:30am 27.1 31.0 24.2 84 2.0 N 11 11 6 6 1007.9 1007.6 0.0
12/01:00am 27.4 31.7 24.3 83 2.2 N 9 11 5 6 1008.2 1007.9 0.0
12/12:30am 27.4 32.0 24.1 82 2.3 N 7 9 4 5 1008.3 1008.0 0.0
12/12:00am 27.8 32.3 24.0 80 2.6 N 7 9 4 5 1008.5 1008.2 0.0
 
Date/Time
WST
Temp
°C
App
Temp
°C
Dew
Point
°C
Rel
Hum
%
Delta-T
°C
Wind Press
QNH
hPa
Press
MSL
hPa
Rain since
9am
mm
Dir  Spd
km/h
Gust
km/h
Spd
kts
Gust
kts
11/11:30pm 27.9 31.6 23.9 79 2.8 N 11 13 6 7 1008.8 1008.5 0.0
11/11:19pm 28.0 31.6 23.8 78 2.9 N 11 13 6 7 1009.0 1008.7 0.0
11/11:07pm 28.0 31.3 23.8 78 2.9 N 13 13 7 7 1009.0 1008.7 0.0
11/11:00pm 27.9 31.5 23.7 78 2.9 N 11 13 6 7 1009.1 1008.8 0.0
11/10:30pm 28.2 31.5 23.8 77 3.0 NNE 13 15 7 8 1009.4 1009.1 0.0
11/10:00pm 28.8 33.0 23.5 73 3.7 NNE 7 9 4 5 1009.5 1009.2 0.0
11/09:30pm 29.7 33.9 23.2 68 4.5 N 6 9 3 5 1009.6 1009.3 0.0
11/09:08pm 30.2 33.1 23.1 65 4.9 N 13 19 7 10 1009.7 1009.4 0.0
11/09:00pm 30.3 33.2 23.2 65 4.9 N 13 19 7 10 1009.7 1009.4 0.0
11/08:49pm 30.3 33.5 23.0 65 5.0 N 11 15 6 8 1009.7 1009.4 0.0
11/08:30pm 30.7 33.0 22.8 62 5.4 N 15 20 8 11 1009.5 1009.2 0.0
11/08:00pm 31.8 33.9 23.1 60 6.0 N 17 22 9 12 1009.2 1008.9 0.0
11/07:30pm 32.4 34.1 23.1 58 6.4 N 19 26 10 14 1008.5 1008.2 0.0
11/07:27pm 32.3 34.2 22.7 57 6.6 N 17 22 9 12 1008.5 1008.2 0.0
11/07:08pm 32.5 34.0 22.0 54 7.2 N 17 24 9 13 1008.1 1007.8 0.0
11/07:00pm 33.0 33.9 21.5 50 7.8 N 19 24 10 13 1008.1 1007.8 0.0
11/06:30pm 33.4 35.2 21.2 48 8.2 N 13 22 7 12 1007.3 1007.0 0.0
11/06:00pm 35.2 37.5 20.7 42 9.8 NNW 9 9 5 5 1006.9 1006.6 0.0
11/05:30pm 38.3 40.5 16.6 28 14.0 CALM 0 0 0 0 1006.6 1006.3 0.0
11/05:00pm 39.5 40.5 16.4 25 14.9 WSW 6 7 3 4 1006.3 1005.9 0.0
11/04:30pm 39.7 39.1 14.7 23 15.8 SW 11 13 6 7 1005.6 1005.2 0.0
11/04:00pm 40.1 40.7 14.3 22 16.2 S 4 7 2 4 1005.7 1005.3 0.0
11/03:30pm 40.5 41.2 16.0 24 15.8 SW 7 11 4 6 1005.5 1005.1 0.0
11/03:00pm 40.0 39.5 14.9 22 15.9 E 11 20 6 11 1005.7 1005.3 0.0
11/02:30pm 40.1 39.6 15.0 23 15.9 SSE 11 20 6 11 1005.9 1005.5 0.0
11/02:00pm 40.0 39.0 15.6 24 15.6 SE 15 20 8 11 1006.1 1005.7 0.0
11/01:30pm 39.9 37.4 14.1 21 16.2 E 20 28 11 15 1006.7 1006.4 0.0
11/01:00pm 39.5 40.3 16.4 25 14.9 SSE 7 15 4 8 1007.0 1006.7 0.0
11/12:30pm 39.0 40.5 18.8 30 13.4 N 9 15 5 8 1007.5 1007.2 0.0
11/12:00pm 38.4 40.1 19.3 33 12.8 NNE 9 17 5 9 1007.9 1007.6 0.0
11/11:30am 37.6 41.3 22.5 41 10.5 ENE 7 13 4 7 1008.4 1008.1 0.0
11/11:00am 36.9 39.7 23.0 44 9.7 N 13 20 7 11 1009.0 1008.7 0.0
11/10:30am 37.0 39.6 22.7 43 9.9 N 13 20 7 11 1009.6 1009.3 0.0
11/10:00am 36.5 39.9 23.4 47 9.2 N 11 17 6 9 1010.1 1009.8 0.0
11/09:30am 35.9 39.7 23.5 48 8.7 NNW 9 15 5 8 1010.7 1010.4 0.0
11/09:00am 35.5 38.7 22.4 46 9.0 WNW 9 15 5 8 1011.0 1010.7 1.2
11/08:52am 35.0 38.8 22.7 49 8.5 WNW 7 19 4 10 1011.0 1010.7 1.2
11/08:40am 35.2 39.1 22.9 49 8.5 SSE 7 9 4 5 1011.2 1010.9 1.2
11/08:30am 34.5 38.7 24.1 54 7.3 SE 9 15 5 8 1011.2 1010.9 1.2
11/08:00am 34.3 39.2 24.3 56 7.0 ESE 6 7 3 4 1011.4 1011.1 1.2
11/07:39am 33.1 38.0 23.7 57 6.6 W 4 7 2 4 1011.5 1011.2 1.2
11/07:30am 32.7 37.9 24.2 61 6.0 E 4 7 2 4 1011.5 1011.2 1.2
11/07:27am 32.7 38.4 25.0 64 5.4 NE 4 7 2 4 1011.5 1011.2 1.2
11/07:00am 31.5 36.1 24.1 65 5.2 N 7 11 4 6 1011.7 1011.4 1.0
11/06:30am 30.2 34.6 24.4 71 4.1 N 9 11 5 6 1011.6 1011.3 1.0
11/06:00am 28.5 33.4 24.7 80 2.7 N 7 9 4 5 1011.5 1011.2 1.0
11/05:30am 26.9 32.0 24.9 89 1.4 N 7 11 4 6 1011.2 1010.9 1.0
11/05:00am 26.3 29.9 24.3 89 1.4 N 13 15 7 8 1010.8 1010.5 1.0
11/04:30am 26.5 31.4 24.3 88 1.5 N 6 7 3 4 1010.4 1010.1 1.0
11/04:00am 27.0 32.4 25.2 90 1.3 ENE 6 9 3 5 1009.8 1009.5 1.0
11/03:30am 27.5 34.0 25.1 87 1.7 CALM 0 0 0 0 1009.6 1009.3 1.0
11/03:00am 27.8 33.6 24.6 83 2.2 SW 2 9 1 5 1009.3 1009.0 1.0
11/02:30am 27.2 32.1 24.7 86 1.7 WSW 7 9 4 5 1009.4 1009.1 1.0
11/02:00am 27.8 32.9 24.0 80 2.6 N 4 7 2 4 1009.3 1009.0 1.0
11/01:30am 27.8 32.6 24.4 82 2.4 NW 7 9 4 5 1009.2 1008.9 1.0
11/01:00am 28.4 33.0 24.2 78 2.9 NNE 7 9 4 5 1009.3 1009.0 1.0
11/12:30am 28.5 34.0 25.3 83 2.3 NE 6 9 3 5 1009.4 1009.1 1.0
11/12:00am 28.7 33.3 24.7 79 2.8 NE 9 11 5 6 1009.6 1009.3 1.0
 
Date/Time
WST
Temp
°C
App
Temp
°C
Dew
Point
°C
Rel
Hum
%
Delta-T
°C
Wind Press
QNH
hPa
Press
MSL
hPa
Rain since
9am
mm
Dir  Spd
km/h
Gust
km/h
Spd
kts
Gust
kts
10/11:30pm 28.8 33.4 24.8 79 2.8 NNE 9 11 5 6 1009.8 1009.5 1.0
10/11:00pm 29.1 34.3 25.1 79 2.8 NNE 7 11 4 6 1009.8 1009.5 1.0
10/10:30pm 29.9 36.4 25.0 75 3.4 CALM 0 2 0 1 1009.9 1009.6 1.0
10/10:00pm 29.7 35.0 25.2 77 3.2 NNW 7 9 4 5 1010.2 1009.9 1.0
10/09:30pm 29.7 34.4 25.0 76 3.3 N 9 13 5 7 1010.2 1009.9 1.0
10/09:00pm 30.2 34.8 25.3 75 3.5 N 11 13 6 7 1009.9 1009.6 1.0
10/08:30pm 29.9 35.3 25.4 77 3.2 N 7 11 4 6 1009.7 1009.4 1.0
10/08:00pm 30.7 34.9 24.8 71 4.2 N 11 13 6 7 1009.6 1009.3 1.0
10/07:30pm 31.7 35.9 24.8 67 4.9 NNW 11 15 6 8 1009.4 1009.1 1.0
10/07:00pm 32.0 34.6 24.6 65 5.2 N 19 28 10 15 1009.1 1008.8 1.0
10/06:45pm 31.4 34.2 25.0 69 4.5 NNW 19 24 10 13 1008.7 1008.4 1.0
10/06:30pm 34.7 35.7 19.5 40 10.1 NE 13 19 7 10 1008.4 1008.1 1.0
10/06:24pm 32.7 36.0 23.9 60 6.1 NE 13 19 7 10 1008.8 1008.5 0.4
10/06:00pm 34.1 37.4 23.2 53 7.6 N 11 13 6 7 1007.6 1007.3 0.0
10/05:30pm 35.4 38.6 23.0 48 8.6 N 11 13 6 7 1007.3 1007.0 0.0
10/05:00pm 36.9 39.3 21.5 41 10.6 NW 11 15 6 8 1007.1 1006.8 0.0
10/04:30pm 37.1 38.6 21.2 39 10.8 NNW 15 19 8 10 1006.9 1006.6 0.0
10/04:00pm 37.7 40.6 21.8 40 11.0 ENE 9 15 5 8 1006.8 1006.5 0.0
10/03:30pm 38.7 39.9 20.0 33 12.6 ESE 13 19 7 10 1006.5 1006.1 0.0
10/03:00pm 38.7 41.2 21.8 37 11.7 S 11 15 6 8 1006.5 1006.1 0.0
10/02:30pm 38.7 42.0 21.8 37 11.6 SSE 7 13 4 7 1006.8 1006.5 0.0
10/02:00pm 38.6 40.5 21.3 36 11.9 SSE 13 20 7 11 1007.3 1007.0 0.0
10/01:30pm 38.0 40.4 20.8 37 11.7 ESE 9 17 5 9 1007.5 1007.2 0.0
10/01:00pm 37.8 40.8 23.4 43 10.1 NNW 13 17 7 9 1008.0 1007.7 0.0
10/12:30pm 36.5 39.3 23.0 45 9.4 NNE 13 17 7 9 1008.5 1008.2 0.0
10/12:00pm 37.7 41.4 23.3 43 10.1 SSE 9 13 5 7 1009.0 1008.7 0.0
10/11:30am 36.7 38.6 22.1 43 10.1 SSE 15 20 8 11 1009.5 1009.2 0.0
10/11:00am 36.7 40.2 22.8 44 9.7 ESE 9 17 5 9 1009.8 1009.5 0.0
10/10:30am 36.6 40.0 22.7 44 9.6 SE 9 15 5 8 1010.3 1010.0 0.0
10/10:00am 35.8 40.2 24.4 51 8.1 SE 9 17 5 9 1010.8 1010.5 0.0
10/09:30am 34.8 39.2 24.4 54 7.3 SSE 9 15 5 8 1011.1 1010.8 0.0
10/09:00am 34.3 38.6 24.3 56 7.0 SSE 9 15 5 8 1011.3 1011.0 0.0
10/08:30am 33.9 39.0 25.6 62 5.9 SSE 9 13 5 7 1011.5 1011.2 0.0
10/08:00am 33.0 38.3 25.0 63 5.7 N 6 11 3 6 1011.5 1011.2 0.0
10/07:30am 32.0 37.6 25.8 69 4.4 NNW 7 11 4 6 1011.5 1011.2 0.0
10/07:00am 30.9 37.1 26.6 78 3.1 NW 7 9 4 5 1011.6 1011.3 0.0
10/06:30am 30.4 37.7 26.8 81 2.6 WNW 2 7 1 4 1011.2 1010.9 0.0
10/06:00am 29.4 36.0 27.0 87 1.7 SW 6 7 3 4 1010.9 1010.6 0.0
10/05:30am 28.5 35.2 26.5 89 1.4 NE 4 6 2 3 1010.6 1010.3 0.0
10/05:00am 28.3 35.3 26.5 90 1.3 ENE 2 6 1 3 1010.4 1010.1 0.0
10/04:45am 28.4 35.8 26.4 89 1.4 CALM 0 0 0 0 1010.2 1009.9 0.0
10/04:32am 28.4 35.6 26.2 88 1.6 CALM 0 0 0 0 1010.0 1009.7 0.0
10/04:30am 28.4 35.8 26.4 89 1.4 CALM 0 0 0 0 1010.0 1009.7 0.0
10/04:00am 28.2 34.3 26.2 89 1.4 SW 6 7 3 4 1009.5 1009.2 0.0
10/03:30am 27.8 34.0 25.8 89 1.4 WNW 4 7 2 4 1009.0 1008.7 0.0
10/03:21am 27.9 34.9 25.9 89 1.4 CALM 0 2 0 1 1008.7 1008.4 0.0
10/03:03am 28.2 34.8 25.8 87 1.7 NE 2 7 1 4 1008.5 1008.2 0.0
10/03:00am 28.0 34.6 25.8 88 1.6 NE 2 6 1 3 1008.5 1008.2 0.0
10/02:31am 28.2 35.2 25.8 87 1.7 CALM 0 0 0 0 1007.9 1007.6 0.0
10/02:30am 28.2 35.2 25.8 87 1.7 CALM 0 0 0 0 1007.9 1007.6 0.0
10/02:05am 28.1 33.4 25.9 88 1.6 NNE 9 11 5 6 1007.9 1007.6 0.0
10/02:00am 28.0 33.4 26.0 89 1.4 NNE 9 11 5 6 1008.0 1007.7 0.0
10/01:30am 28.4 35.1 26.0 87 1.7 NNE 2 7 1 4 1008.1 1007.8 0.0
10/01:29am 28.4 35.1 26.0 87 1.7 NNE 2 7 1 4 1008.1 1007.8 0.0
10/01:15am 28.4 35.1 26.0 87 1.7 N 2 7 1 4 1008.1 1007.8 0.0
10/01:00am 28.5 34.5 26.1 87 1.7 N 6 7 3 4 1008.2 1007.9 0.0
10/12:30am 28.4 34.2 26.0 87 1.7 NNE 7 9 4 5 1008.2 1007.9 0.0
10/12:00am 28.9 34.4 26.1 85 2.0 NNE 9 13 5 7 1008.4 1008.1 0.0
 
Date/Time
WST
Temp
°C
App
Temp
°C
Dew
Point
°C
Rel
Hum
%
Delta-T
°C
Wind Press
QNH
hPa
Press
MSL
hPa
Rain since
9am
mm
Dir  Spd
km/h
Gust
km/h
Spd
kts
Gust
kts
09/11:30pm 29.2 36.4 26.2 84 2.1 CALM 0 0 0 0 1008.6 1008.3 0.0
09/11:00pm 28.9 34.5 26.3 86 1.9 N 9 11 5 6 1009.0 1008.7 0.0
09/10:30pm 29.1 34.3 26.3 85 2.0 N 11 13 6 7 1009.2 1008.9 0.0
09/10:00pm 29.5 35.5 26.3 83 2.3 NNW 7 9 4 5 1009.0 1008.7 0.0

Other Formats:

Comma delimited format used in spreadsheet applications
http://www.bom.gov.au/fwo/IDW60801/IDW60801.94216.axf

JavaScript Object Notation format (JSON) in row-major order
http://www.bom.gov.au/fwo/IDW60801/IDW60801.94216.json